Time;durP1;ratioP1;P1;durP2;ratioP2;P2;SDS_P1;SDS_P2;PMS_P1;PMS_P2;Temp;Humidity;BMP_temperature;BMP_pressure;BME280_temperature;BME280_humidity;BME280_pressure;Samples;Min_cycle;Max_cycle;Signal;HPM_P1;HPM_P2
2021/04/24 00:00:58;;;;;;;20.80;8.70;;;6.90;72.70;;;;;;5049863;28;20126;-76
2021/04/24 00:03:24;;;;;;;13.37;7.83;;;6.90;72.70;;;;;;5048393;28;20033;-75
2021/04/24 00:05:51;;;;;;;15.77;6.77;;;6.90;73.10;;;;;;5055272;28;20065;-75
2021/04/24 00:08:17;;;;;;;14.53;7.10;;;6.80;72.90;;;;;;5056097;28;20036;-75
2021/04/24 00:10:46;;;;;;;12.00;7.23;;;6.90;72.80;;;;;;5069373;28;20028;-75
2021/04/24 00:13:15;;;;;;;13.17;6.60;;;6.80;72.70;;;;;;5075828;28;20036;-76
2021/04/24 00:15:42;;;;;;;13.43;7.47;;;6.80;72.70;;;;;;5076615;28;20027;-75
2021/04/24 00:18:10;;;;;;;14.53;6.80;;;6.70;72.70;;;;;;5076155;28;20029;-79
2021/04/24 00:20:36;;;;;;;13.57;6.80;;;6.70;72.80;;;;;;5071800;28;20469;-76
2021/04/24 00:23:03;;;;;;;12.50;6.63;;;6.70;73.10;;;;;;5075782;28;20029;-77
2021/04/24 00:25:29;;;;;;;14.23;7.10;;;6.70;73.10;;;;;;5060420;28;20033;-77
2021/04/24 00:27:55;;;;;;;16.70;9.67;;;6.70;73.20;;;;;;5077366;28;20032;-77
2021/04/24 00:30:21;;;;;;;16.80;8.90;;;6.70;73.50;;;;;;5075293;28;20481;-76
2021/04/24 00:32:47;;;;;;;15.60;8.50;;;6.80;73.70;;;;;;5058812;28;20044;-75
2021/04/24 00:35:16;;;;;;;13.03;7.10;;;6.80;73.40;;;;;;5074229;28;20108;-75
2021/04/24 00:37:42;;;;;;;13.80;8.20;;;6.80;73.10;;;;;;5059382;28;20021;-75
2021/04/24 00:40:09;;;;;;;14.17;7.83;;;6.80;73.20;;;;;;5061592;28;20029;-78
2021/04/24 00:42:36;;;;;;;15.53;8.70;;;6.90;73.50;;;;;;5058301;28;20032;-76
2021/04/24 00:45:04;;;;;;;15.17;7.77;;;6.90;73.40;;;;;;5075894;28;20059;-76
2021/04/24 00:47:29;;;;;;;11.57;6.80;;;6.90;73.60;;;;;;5057450;28;20107;-76
2021/04/24 00:49:55;;;;;;;13.23;7.47;;;6.90;73.10;;;;;;5069984;28;20382;-76
2021/04/24 00:52:21;;;;;;;14.23;6.03;;;6.90;73.20;;;;;;5054481;28;20475;-76
2021/04/24 00:54:46;;;;;;;16.03;7.93;;;6.90;72.90;;;;;;5055626;28;20106;-76
2021/04/24 00:57:13;;;;;;;14.03;7.70;;;6.80;73.10;;;;;;5054645;28;20492;-78
2021/04/24 00:59:40;;;;;;;14.33;7.20;;;6.90;73.20;;;;;;5054636;28;20037;-77
2021/04/24 01:02:08;;;;;;;13.63;7.87;;;6.80;73.20;;;;;;5054713;28;20033;-77
2021/04/24 01:04:34;;;;;;;12.00;7.13;;;6.90;73.60;;;;;;5053574;28;20045;-76
2021/04/24 01:07:02;;;;;;;13.97;6.57;;;6.90;73.00;;;;;;5056243;28;20025;-76
2021/04/24 01:09:27;;;;;;;15.67;8.20;;;6.90;73.20;;;;;;5055187;28;20047;-75
2021/04/24 01:11:53;;;;;;;15.47;7.07;;;6.90;73.90;;;;;;5054745;28;20394;-76
2021/04/24 01:14:20;;;;;;;11.33;6.40;;;7.00;73.70;;;;;;5053624;28;20033;-77
2021/04/24 01:16:45;;;;;;;12.37;6.50;;;7.00;73.00;;;;;;5053478;28;20025;-77
2021/04/24 01:19:20;;;;;;;11.40;6.67;;;6.80;72.70;;;;;;5063254;28;20063;-76
2021/04/24 01:21:48;;;;;;;11.63;6.47;;;6.60;72.70;;;;;;5062533;28;20037;-77
2021/04/24 01:24:14;;;;;;;13.20;6.20;;;6.50;73.10;;;;;;5052894;28;20033;-78
2021/04/24 01:26:40;;;;;;;12.40;6.20;;;6.40;73.30;;;;;;5051293;28;20120;-77
2021/04/24 01:29:06;;;;;;;12.30;6.77;;;6.20;73.60;;;;;;5056147;28;20478;-76
2021/04/24 01:31:33;;;;;;;12.30;6.63;;;6.10;73.90;;;;;;5070687;28;20029;-76
2021/04/24 01:33:59;;;;;;;15.40;5.83;;;5.90;74.20;;;;;;5043880;28;20029;-75
2021/04/24 01:36:25;;;;;;;13.27;6.90;;;5.90;74.40;;;;;;5047210;28;20025;-75
2021/04/24 01:38:50;;;;;;;14.30;6.47;;;5.80;74.70;;;;;;5069729;28;20497;-75
2021/04/24 01:41:16;;;;;;;12.40;5.97;;;5.80;75.00;;;;;;5049529;28;20710;-78
2021/04/24 01:43:42;;;;;;;17.93;7.03;;;5.80;75.00;;;;;;5064584;28;21805;-76
2021/04/24 01:46:07;;;;;;;12.70;6.50;;;5.70;75.00;;;;;;5070773;28;20421;-76
2021/04/24 01:48:33;;;;;;;11.83;6.40;;;5.70;75.30;;;;;;5054975;28;20485;-77
2021/04/24 01:50:58;;;;;;;15.60;6.67;;;5.50;75.40;;;;;;5063606;28;20044;-75
2021/04/24 01:53:24;;;;;;;12.80;6.47;;;5.50;75.50;;;;;;5052262;28;20032;-75
2021/04/24 01:55:51;;;;;;;13.23;7.77;;;5.40;75.80;;;;;;5069947;28;20032;-75
2021/04/24 01:58:22;;;;;;;13.97;7.17;;;5.40;76.00;;;;;;5055617;28;20021;-75
2021/04/24 02:01:03;;;;;;;16.20;7.07;;;5.50;76.00;;;;;;5065566;28;20028;-75
2021/04/24 02:03:29;;;;;;;16.53;8.13;;;5.50;75.90;;;;;;5072047;28;20024;-76
2021/04/24 02:05:56;;;;;;;14.50;7.40;;;5.50;76.20;;;;;;5071341;28;20082;-77
2021/04/24 02:08:25;;;;;;;20.13;8.70;;;5.40;76.00;;;;;;5071931;28;20027;-79
2021/04/24 02:10:54;;;;;;;20.00;11.00;;;5.40;76.20;;;;;;5069971;28;20036;-76
2021/04/24 02:13:23;;;;;;;23.83;11.53;;;5.50;76.40;;;;;;5067811;28;20032;-77
2021/04/24 02:15:49;;;;;;;22.63;13.33;;;5.70;76.80;;;;;;5066403;28;20521;-76
2021/04/24 02:18:15;;;;;;;17.97;10.27;;;5.90;77.10;;;;;;5034820;28;20036;-76
2021/04/24 02:20:43;;;;;;;21.17;10.70;;;6.00;76.30;;;;;;5039336;28;20218;-76
2021/04/24 02:23:13;;;;;;;18.30;11.20;;;6.10;76.30;;;;;;5053139;28;20032;-77
2021/04/24 02:25:39;;;;;;;16.00;8.67;;;6.10;76.30;;;;;;4998093;28;20383;-75
2021/04/24 02:28:05;;;;;;;21.17;12.00;;;6.10;75.40;;;;;;5041110;28;20027;-76
2021/04/24 02:30:31;;;;;;;12.50;7.90;;;6.10;76.00;;;;;;5046502;28;20036;-76
2021/04/24 02:32:57;;;;;;;15.67;8.03;;;6.00;75.40;;;;;;5071712;28;20055;-76
2021/04/24 02:35:37;;;;;;;16.70;9.23;;;5.90;75.60;;;;;;5055905;28;20475;-80
2021/04/24 02:38:03;;;;;;;16.00;7.90;;;6.00;76.30;;;;;;5055222;28;20485;-77
2021/04/24 02:40:29;;;;;;;13.80;8.30;;;6.00;75.80;;;;;;5057340;28;20040;-76
2021/04/24 02:42:55;;;;;;;15.40;9.40;;;6.00;76.00;;;;;;5058327;28;20100;-75
2021/04/24 02:45:21;;;;;;;17.70;9.77;;;5.90;75.70;;;;;;5059446;28;20034;-76
2021/04/24 02:47:46;;;;;;;17.17;7.80;;;6.00;76.20;;;;;;5067024;28;20047;-75
2021/04/24 02:50:16;;;;;;;15.53;7.53;;;6.00;75.80;;;;;;5059194;28;20119;-76
2021/04/24 02:52:42;;;;;;;16.23;7.47;;;5.90;75.30;;;;;;5051414;28;20087;-76
2021/04/24 02:55:09;;;;;;;16.93;8.07;;;6.00;76.00;;;;;;5050011;28;20032;-75
2021/04/24 02:57:35;;;;;;;14.40;8.27;;;5.90;75.60;;;;;;5051689;28;20079;-75
2021/04/24 03:00:00;;;;;;;18.17;8.37;;;6.00;76.10;;;;;;5052062;28;20062;-76
2021/04/24 03:02:26;;;;;;;11.60;7.13;;;6.00;75.80;;;;;;5062170;28;20041;-77
2021/04/24 03:04:52;;;;;;;12.57;6.00;;;6.10;75.50;;;;;;5050502;28;20056;-75
2021/04/24 03:07:17;;;;;;;16.07;6.90;;;5.90;74.90;;;;;;5054231;28;20083;-76
2021/04/24 03:09:44;;;;;;;15.50;7.57;;;5.80;75.20;;;;;;5034229;28;20078;-76
2021/04/24 03:12:09;;;;;;;14.90;8.23;;;5.60;75.60;;;;;;5069081;28;20036;-77
2021/04/24 03:14:35;;;;;;;16.87;8.00;;;5.70;76.30;;;;;;5070877;28;20047;-76
2021/04/24 03:17:01;;;;;;;12.13;7.77;;;5.70;76.10;;;;;;5061541;28;20323;-75
2021/04/24 03:19:27;;;;;;;15.70;7.70;;;5.70;75.90;;;;;;5069783;28;20040;-76
2021/04/24 03:21:52;;;;;;;16.30;7.53;;;5.80;76.60;;;;;;5069095;28;20028;-76
2021/04/24 03:24:18;;;;;;;16.13;7.13;;;5.80;76.00;;;;;;5069631;28;20060;-77
2021/04/24 03:26:44;;;;;;;15.87;7.60;;;5.60;75.90;;;;;;5069525;28;20032;-77
2021/04/24 03:29:09;;;;;;;14.50;7.33;;;5.60;76.10;;;;;;5034480;28;20025;-76
2021/04/24 03:31:35;;;;;;;22.73;8.13;;;5.40;76.00;;;;;;5044298;28;20046;-79
2021/04/24 03:34:01;;;;;;;15.00;6.77;;;5.30;76.40;;;;;;5069015;28;20112;-77
2021/04/24 03:36:27;;;;;;;16.10;7.53;;;5.20;76.50;;;;;;5071015;28;20043;-75
2021/04/24 03:38:53;;;;;;;17.93;7.90;;;5.20;77.00;;;;;;5055162;28;20201;-76
2021/04/24 03:41:19;;;;;;;14.53;7.80;;;5.20;77.20;;;;;;5015537;28;20051;-77
2021/04/24 03:43:44;;;;;;;15.80;7.17;;;5.20;77.30;;;;;;5064042;28;20033;-77
2021/04/24 03:46:10;;;;;;;15.47;7.30;;;5.20;77.30;;;;;;5058621;28;20022;-76
2021/04/24 03:48:35;;;;;;;16.03;7.23;;;5.00;77.20;;;;;;5043800;28;20550;-78
2021/04/24 03:51:02;;;;;;;15.77;7.47;;;5.00;77.70;;;;;;5063802;28;20037;-76
2021/04/24 03:53:28;;;;;;;19.40;8.07;;;5.00;77.70;;;;;;5050929;28;20112;-77
2021/04/24 03:55:54;;;;;;;22.63;9.53;;;5.00;77.90;;;;;;5048564;28;20137;-76
2021/04/24 03:58:20;;;;;;;18.23;7.73;;;5.00;78.20;;;;;;5048267;28;20082;-76
2021/04/24 04:00:46;;;;;;;13.83;7.57;;;5.10;78.00;;;;;;5066616;28;20565;-76
2021/04/24 04:03:12;;;;;;;15.47;8.27;;;5.10;78.20;;;;;;5064357;28;20397;-77
2021/04/24 04:05:44;;;;;;;15.80;7.40;;;5.10;77.70;;;;;;5052783;28;20175;-78
2021/04/24 04:08:11;;;;;;;16.70;7.40;;;5.00;78.10;;;;;;5029007;28;20081;-76
2021/04/24 04:10:39;;;;;;;15.13;7.40;;;5.10;78.40;;;;;;5051451;28;20071;-78
2021/04/24 04:13:06;;;;;;;17.23;7.17;;;5.20;78.60;;;;;;5068538;28;20446;-76
2021/04/24 04:15:32;;;;;;;16.93;7.23;;;5.50;79.40;;;;;;5064798;28;20492;-76
2021/04/24 04:18:11;;;;;;;16.90;7.47;;;5.60;77.60;;;;;;5064883;28;20607;-76
2021/04/24 04:20:39;;;;;;;16.23;7.90;;;5.50;77.00;;;;;;5055526;28;20159;-76
2021/04/24 04:23:04;;;;;;;17.67;8.17;;;5.30;77.30;;;;;;5048622;28;20443;-75
2021/04/24 04:25:30;;;;;;;18.63;7.93;;;5.10;77.40;;;;;;5048613;28;20170;-76
2021/04/24 04:27:56;;;;;;;15.00;7.67;;;5.10;77.80;;;;;;5062423;28;20047;-76
2021/04/24 04:30:24;;;;;;;18.93;9.17;;;4.90;78.00;;;;;;5057940;28;20117;-76
2021/04/24 04:32:50;;;;;;;17.00;8.33;;;4.90;78.40;;;;;;5048564;28;20053;-76
2021/04/24 04:35:17;;;;;;;20.93;9.27;;;4.90;78.20;;;;;;5066041;28;20082;-77
2021/04/24 04:37:43;;;;;;;22.20;11.30;;;5.00;78.40;;;;;;5070358;28;20016;-78
2021/04/24 04:40:11;;;;;;;23.63;10.40;;;4.90;78.30;;;;;;5063575;28;20047;-77
2021/04/24 04:42:37;;;;;;;25.07;10.93;;;5.00;78.20;;;;;;5070480;28;20031;-77
2021/04/24 04:45:05;;;;;;;18.20;9.30;;;5.00;78.00;;;;;;5066275;28;20468;-77
2021/04/24 04:47:31;;;;;;;17.80;8.67;;;5.40;78.40;;;;;;5064885;28;20543;-78
2021/04/24 04:49:57;;;;;;;15.43;8.40;;;5.70;77.10;;;;;;5060410;28;20033;-76
2021/04/24 04:52:22;;;;;;;16.33;8.33;;;6.10;75.60;;;;;;5068190;28;20060;-77
2021/04/24 04:54:48;;;;;;;18.27;7.80;;;6.20;74.50;;;;;;5031475;28;20450;-76
2021/04/24 04:57:14;;;;;;;13.73;7.23;;;6.20;74.30;;;;;;5062828;28;20495;-77
2021/04/24 04:59:39;;;;;;;19.87;8.17;;;6.20;74.40;;;;;;5042141;28;20455;-76
2021/04/24 05:02:05;;;;;;;17.33;8.10;;;6.20;74.80;;;;;;5059054;28;20458;-76
2021/04/24 05:04:31;;;;;;;16.90;8.43;;;6.40;74.60;;;;;;5070406;28;20056;-77
2021/04/24 05:06:57;;;;;;;19.77;8.23;;;6.50;74.10;;;;;;5069365;28;20098;-77
2021/04/24 05:09:22;;;;;;;19.17;7.73;;;6.60;74.10;;;;;;5071914;28;20037;-76
2021/04/24 05:11:49;;;;;;;16.37;8.30;;;6.80;73.30;;;;;;5035910;28;20033;-80
2021/04/24 05:14:16;;;;;;;19.07;8.20;;;7.00;73.30;;;;;;5054502;28;20081;-77
2021/04/24 05:16:42;;;;;;;19.90;8.10;;;7.30;72.30;;;;;;5052177;28;20387;-76
2021/04/24 05:19:07;;;;;;;15.37;7.70;;;7.80;71.50;;;;;;5072419;28;20032;-76
2021/04/24 05:21:34;;;;;;;15.93;7.83;;;8.00;69.80;;;;;;5026825;28;20041;-77
2021/04/24 05:24:00;;;;;;;14.60;8.20;;;8.10;69.20;;;;;;5072270;28;20024;-76
2021/04/24 05:26:26;;;;;;;15.60;7.73;;;8.40;68.60;;;;;;5069681;28;20513;-75
2021/04/24 05:28:51;;;;;;;13.33;7.23;;;9.00;67.70;;;;;;5069280;28;20029;-79
2021/04/24 05:31:17;;;;;;;16.43;7.83;;;9.90;65.40;;;;;;5039655;28;20131;-76
2021/04/24 05:33:43;;;;;;;15.40;7.73;;;10.20;63.10;;;;;;5039072;28;20048;-77
2021/04/24 05:36:11;;;;;;;16.80;8.00;;;10.10;63.30;;;;;;5047483;28;20025;-76
2021/04/24 05:38:37;;;;;;;14.77;7.47;;;9.80;62.50;;;;;;5055534;28;20059;-77
2021/04/24 05:41:04;;;;;;;17.30;8.10;;;9.60;63.90;;;;;;5031744;28;20116;-76
2021/04/24 05:43:29;;;;;;;14.53;7.10;;;9.80;63.80;;;;;;5021653;28;20037;-77
2021/04/24 05:45:55;;;;;;;17.07;7.70;;;10.50;62.40;;;;;;5071586;28;20025;-76
2021/04/24 05:48:21;;;;;;;17.37;8.03;;;11.40;60.40;;;;;;5048143;28;20452;-77
2021/04/24 05:50:46;;;;;;;23.73;8.90;;;11.70;58.50;;;;;;5040956;28;20047;-76
2021/04/24 05:53:12;;;;;;;18.30;8.30;;;11.40;58.50;;;;;;5034747;28;20067;-77
2021/04/24 05:55:38;;;;;;;18.70;8.67;;;11.00;59.40;;;;;;5056511;28;20035;-76
2021/04/24 05:58:04;;;;;;;14.97;8.20;;;10.80;60.50;;;;;;5009350;28;20484;-77
2021/04/24 06:00:29;;;;;;;17.63;8.70;;;10.20;61.30;;;;;;5044398;28;20347;-76
2021/04/24 06:02:55;;;;;;;18.77;8.70;;;9.80;62.60;;;;;;5035636;28;20024;-81
2021/04/24 06:05:21;;;;;;;17.07;9.27;;;9.40;63.50;;;;;;5033931;28;20536;-74
2021/04/24 06:07:47;;;;;;;19.30;8.87;;;9.10;64.40;;;;;;5025265;28;20453;-74
2021/04/24 06:10:15;;;;;;;25.73;10.47;;;8.90;65.40;;;;;;5034090;28;20139;-77
2021/04/24 06:12:41;;;;;;;22.73;8.60;;;9.10;66.20;;;;;;5034063;28;20016;-80
2021/04/24 06:15:09;;;;;;;21.10;10.53;;;9.30;65.00;;;;;;5033215;28;20036;-76
2021/04/24 06:17:35;;;;;;;19.23;9.23;;;9.30;65.20;;;;;;5033178;28;20033;-75
2021/04/24 06:20:01;;;;;;;23.87;8.80;;;9.50;65.40;;;;;;5033147;28;20163;-79
2021/04/24 06:22:26;;;;;;;17.63;8.23;;;9.40;64.50;;;;;;5038082;28;20120;-75
2021/04/24 06:24:52;;;;;;;14.73;8.13;;;9.50;65.10;;;;;;5037294;28;20075;-74
2021/04/24 06:27:18;;;;;;;17.63;8.40;;;9.80;64.40;;;;;;5027111;28;20064;-75
2021/04/24 06:29:43;;;;;;;16.63;8.00;;;9.90;63.70;;;;;;5058586;28;20035;-73
2021/04/24 06:32:09;;;;;;;15.63;7.93;;;10.20;63.70;;;;;;5059531;28;20394;-73
2021/04/24 06:34:35;;;;;;;15.60;8.10;;;10.40;62.50;;;;;;5037346;28;20039;-74
2021/04/24 06:37:00;;;;;;;16.73;7.83;;;10.30;62.50;;;;;;5033737;28;20175;-79
2021/04/24 06:39:26;;;;;;;17.23;8.20;;;10.20;62.70;;;;;;5035756;28;20092;-79
2021/04/24 06:41:52;;;;;;;22.57;8.03;;;10.40;62.00;;;;;;5023348;28;20605;-76
2021/04/24 06:44:18;;;;;;;12.00;7.10;;;10.40;61.40;;;;;;5030306;28;20034;-76
2021/04/24 06:46:44;;;;;;;14.50;7.43;;;10.60;61.40;;;;;;5039207;28;20064;-75
2021/04/24 06:49:11;;;;;;;14.30;7.73;;;11.00;60.90;;;;;;5043511;28;20049;-74
2021/04/24 06:51:37;;;;;;;14.33;7.23;;;11.50;59.80;;;;;;5033751;28;20550;-73
2021/04/24 06:54:04;;;;;;;14.87;7.07;;;12.00;58.20;;;;;;5044795;28;20414;-80
2021/04/24 06:56:29;;;;;;;14.53;6.90;;;12.90;57.20;;;;;;5058128;28;20025;-75
2021/04/24 06:58:55;;;;;;;14.93;7.60;;;12.90;54.80;;;;;;5067387;28;20039;-74
2021/04/24 07:01:21;;;;;;;15.57;7.77;;;13.00;54.80;;;;;;5039402;28;20033;-75
2021/04/24 07:03:46;;;;;;;14.20;7.20;;;12.70;53.60;;;;;;5020030;28;20045;-75
2021/04/24 07:06:12;;;;;;;10.43;6.70;;;12.60;55.30;;;;;;5039283;28;20102;-74
2021/04/24 07:08:38;;;;;;;13.57;6.73;;;12.80;56.00;;;;;;5065625;28;20405;-74
2021/04/24 07:11:04;;;;;;;13.53;7.60;;;13.30;53.90;;;;;;5045252;28;20053;-79
2021/04/24 07:13:29;;;;;;;10.80;7.07;;;13.40;52.70;;;;;;5028826;28;20036;-76
2021/04/24 07:15:59;;;;;;;11.53;6.80;;;13.20;52.50;;;;;;5048627;28;20104;-77
2021/04/24 07:18:24;;;;;;;16.20;8.00;;;13.40;53.20;;;;;;5059179;28;20028;-75
2021/04/24 07:20:50;;;;;;;15.37;8.50;;;13.50;52.30;;;;;;5069208;28;20123;-77
2021/04/24 07:23:16;;;;;;;14.40;7.87;;;13.30;51.50;;;;;;5033488;28;20041;-76
2021/04/24 07:25:41;;;;;;;16.90;7.20;;;12.90;52.50;;;;;;5029360;28;20092;-76
2021/04/24 07:28:07;;;;;;;15.73;7.43;;;12.80;53.70;;;;;;5058350;28;20033;-77
2021/04/24 07:30:34;;;;;;;11.90;6.67;;;13.20;53.50;;;;;;5055456;28;20032;-76
2021/04/24 07:33:00;;;;;;;13.85;6.07;;;13.70;52.50;;;;;;5037530;28;20053;-75
2021/04/24 07:35:26;;;;;;;14.35;6.80;;;14.10;50.20;;;;;;5038423;28;20651;-75
2021/04/24 07:37:51;;;;;;;11.93;6.43;;;14.40;49.10;;;;;;5048721;28;20092;-76
2021/04/24 07:40:17;;;;;;;14.02;5.82;;;14.30;48.70;;;;;;5066145;28;20107;-77
2021/04/24 07:42:43;;;;;;;10.82;5.63;;;14.10;49.40;;;;;;5051684;28;20339;-76
2021/04/24 07:45:10;;;;;;;9.40;5.00;;;13.90;50.60;;;;;;5051088;28;20025;-80
2021/04/24 07:47:36;;;;;;;7.53;3.83;;;13.60;49.60;;;;;;5037477;28;20035;-75
2021/04/24 07:50:03;;;;;;;12.18;4.53;;;13.50;51.60;;;;;;5057842;28;20025;-76
2021/04/24 07:52:28;;;;;;;9.00;4.07;;;13.50;50.20;;;;;;5032818;28;20705;-76
2021/04/24 07:54:55;;;;;;;8.10;3.97;;;13.60;51.80;;;;;;5051369;28;20060;-76
2021/04/24 07:57:20;;;;;;;14.13;5.83;;;13.70;50.20;;;;;;5052464;28;20024;-76
2021/04/24 07:59:46;;;;;;;10.93;4.93;;;13.60;49.60;;;;;;5044355;28;20041;-75
2021/04/24 08:02:12;;;;;;;12.97;5.10;;;13.30;50.40;;;;;;5069058;28;20032;-79
2021/04/24 08:04:38;;;;;;;11.15;3.92;;;13.30;50.40;;;;;;5063356;28;20049;-75
2021/04/24 08:07:07;;;;;;;7.55;3.72;;;13.50;50.40;;;;;;5040780;28;20124;-76
2021/04/24 08:09:33;;;;;;;7.97;4.70;;;13.60;50.10;;;;;;5055695;28;20544;-77
2021/04/24 08:11:58;;;;;;;7.63;3.83;;;13.60;50.20;;;;;;5050133;28;20046;-76
2021/04/24 08:14:24;;;;;;;8.95;4.10;;;13.90;50.80;;;;;;5044947;28;20482;-76
2021/04/24 08:16:49;;;;;;;7.75;3.53;;;14.60;48.60;;;;;;5048957;28;20025;-76
2021/04/24 08:19:15;;;;;;;11.10;3.80;;;15.60;48.20;;;;;;5064739;28;20115;-77
2021/04/24 08:21:42;;;;;;;7.40;3.80;;;16.20;45.30;;;;;;5058176;28;20048;-77
2021/04/24 08:24:08;;;;;;;6.15;3.67;;;17.00;44.50;;;;;;5066337;28;20040;-74
2021/04/24 08:26:34;;;;;;;10.38;4.13;;;16.90;41.90;;;;;;5070475;28;20650;-76
2021/04/24 08:29:00;;;;;;;7.90;4.47;;;16.20;42.70;;;;;;5058263;28;20055;-75
2021/04/24 08:31:26;;;;;;;7.30;3.80;;;15.40;43.60;;;;;;5058880;28;20039;-75
2021/04/24 08:33:51;;;;;;;7.50;3.80;;;14.70;46.00;;;;;;5057980;28;20025;-74
2021/04/24 08:36:17;;;;;;;9.38;3.92;;;14.80;45.80;;;;;;5071260;28;20372;-79
2021/04/24 08:38:43;;;;;;;7.55;3.40;;;15.30;44.40;;;;;;5068022;28;20120;-75
2021/04/24 08:41:09;;;;;;;7.78;3.38;;;15.50;45.00;;;;;;5056983;28;20478;-75
2021/04/24 08:43:39;;;;;;;5.90;3.78;;;16.00;41.90;;;;;;5057420;28;20115;-75
2021/04/24 08:46:05;;;;;;;10.27;4.38;;;15.90;43.20;;;;;;5062621;28;20059;-74
2021/04/24 08:48:32;;;;;;;8.40;3.53;;;15.70;42.70;;;;;;5063681;28;20036;-75
2021/04/24 08:50:57;;;;;;;8.15;4.20;;;15.80;43.40;;;;;;5032373;28;20480;-74
2021/04/24 08:53:23;;;;;;;5.93;3.55;;;16.80;42.30;;;;;;5046918;28;20025;-75
2021/04/24 08:55:49;;;;;;;8.63;3.35;;;17.30;39.80;;;;;;5038917;28;20091;-75
2021/04/24 08:58:16;;;;;;;8.10;4.07;;;17.20;41.30;;;;;;5062425;28;20111;-75
2021/04/24 09:00:45;;;;;;;7.35;3.50;;;17.50;39.50;;;;;;5032762;28;20785;-77
2021/04/24 09:03:13;;;;;;;6.35;3.10;;;17.30;39.20;;;;;;5033832;28;20030;-75
2021/04/24 09:05:39;;;;;;;5.10;3.83;;;17.30;38.30;;;;;;5031005;28;20124;-78
2021/04/24 09:08:11;;;;;;;8.68;4.25;;;17.10;40.70;;;;;;5048560;28;20118;-73
2021/04/24 09:10:44;;;;;;;8.98;4.60;;;17.20;40.70;;;;;;5057454;28;20043;-76
2021/04/24 09:13:21;;;;;;;8.52;3.30;;;18.50;39.40;;;;;;5066053;28;20029;-75
2021/04/24 09:15:48;;;;;;;7.47;4.10;;;18.80;38.30;;;;;;5039572;28;20088;-76
2021/04/24 09:18:15;;;;;;;7.60;2.60;;;18.90;36.10;;;;;;5047887;28;20061;-75
2021/04/24 09:20:47;;;;;;;5.10;2.90;;;19.00;38.40;;;;;;5049684;28;20032;-76
2021/04/24 09:23:16;;;;;;;7.25;3.00;;;19.90;37.60;;;;;;5065111;28;20100;-76
2021/04/24 09:25:56;;;;;;;5.03;2.95;;;20.10;33.70;;;;;;5030876;28;20029;-75
2021/04/24 09:28:31;;;;;;;4.40;2.53;;;19.70;34.60;;;;;;5059977;28;20078;-78
2021/04/24 09:30:59;;;;;;;6.10;2.83;;;18.60;36.70;;;;;;5040678;28;20052;-75
2021/04/24 09:33:31;;;;;;;4.20;2.40;;;18.60;36.70;;;;;;5032203;28;20502;-78
2021/04/24 09:35:57;;;;;;;4.43;2.38;;;18.80;35.70;;;;;;5057398;28;20116;-75
2021/04/24 09:38:29;;;;;;;5.63;2.78;;;18.10;36.40;;;;;;5067002;28;20107;-75
2021/04/24 09:41:12;;;;;;;7.60;2.40;;;17.80;37.70;;;;;;5050285;28;20036;-76
2021/04/24 09:43:55;;;;;;;4.40;2.83;;;18.00;37.40;;;;;;5054158;28;20478;-75
2021/04/24 09:46:22;;;;;;;;;;;18.30;35.80;;;;;;5046866;28;20033;-77
2021/04/24 09:48:48;;;;;;;27.23;4.78;;;18.30;37.10;;;;;;5056690;28;19904;-76
2021/04/24 09:51:19;;;;;;;8.88;3.10;;;19.00;37.00;;;;;;5045672;28;20483;-74
2021/04/24 09:53:56;;;;;;;8.25;4.05;;;19.30;35.30;;;;;;5047478;28;20029;-75
2021/04/24 09:56:25;;;;;;;5.15;3.20;;;18.20;34.40;;;;;;5070462;28;20063;-75
2021/04/24 09:58:50;;;;;;;6.15;3.25;;;16.70;36.40;;;;;;5047927;28;20020;-75
2021/04/24 10:01:25;;;;;;;4.93;2.70;;;16.00;39.50;;;;;;5052414;28;20815;-75
2021/04/24 10:03:52;;;;;;;5.63;3.28;;;16.70;39.00;;;;;;5049081;28;20878;-74
2021/04/24 10:06:31;;;;;;;6.18;2.92;;;17.00;36.60;;;;;;5046718;28;20029;-76
2021/04/24 10:09:19;;;;;;;4.50;2.80;;;16.10;37.90;;;;;;5038298;28;20120;-76
2021/04/24 10:11:49;;;;;;;5.75;3.65;;;16.10;39.40;;;;;;5054630;28;20032;-77
2021/04/24 10:14:26;;;;;;;6.07;3.00;;;16.50;39.30;;;;;;5047903;28;20029;-75
2021/04/24 10:16:52;;;;;;;4.10;2.53;;;16.70;39.40;;;;;;5039897;28;20121;-76
2021/04/24 10:19:17;;;;;;;6.28;2.63;;;17.50;38.50;;;;;;5036389;28;20152;-75
2021/04/24 10:21:44;;;;;;;4.22;2.95;;;18.50;37.90;;;;;;5033363;28;20087;-75
2021/04/24 10:24:11;;;;;;;3.95;3.15;;;19.30;35.50;;;;;;5042554;28;20033;-75
2021/04/24 10:26:39;;;;;;;5.57;3.25;;;18.50;34.00;;;;;;5055986;28;20037;-75
2021/04/24 10:29:06;;;;;;;4.78;3.58;;;17.30;36.00;;;;;;5041498;28;20029;-76
2021/04/24 10:31:33;;;;;;;7.25;3.83;;;17.10;37.30;;;;;;5054593;28;20051;-79
2021/04/24 10:34:00;;;;;;;4.93;3.70;;;16.80;37.80;;;;;;5054054;28;20052;-74
2021/04/24 10:36:28;;;;;;;6.28;3.50;;;17.10;37.90;;;;;;5054257;28;20047;-75
2021/04/24 10:38:55;;;;;;;5.47;2.67;;;16.50;37.90;;;;;;5056736;28;20355;-75
2021/04/24 10:41:38;;;;;;;6.72;3.67;;;16.40;39.70;;;;;;5058391;28;20028;-76
2021/04/24 10:44:07;;;;;;;7.18;3.15;;;17.20;37.90;;;;;;5053835;28;20455;-77
2021/04/24 10:46:35;;;;;;;6.10;2.83;;;17.30;38.00;;;;;;5055280;28;20067;-75
2021/04/24 10:49:16;;;;;;;10.30;3.13;;;17.60;38.70;;;;;;5059605;28;20035;-76
2021/04/24 10:51:55;;;;;;;8.07;3.78;;;17.70;37.50;;;;;;5037462;28;20517;-75
2021/04/24 10:54:22;;;;;;;5.50;3.53;;;17.90;38.80;;;;;;5058935;28;20063;-76
2021/04/24 10:56:48;;;;;;;6.70;3.67;;;18.40;38.40;;;;;;5062451;28;20119;-76
2021/04/24 10:59:17;;;;;;;5.80;3.05;;;18.70;36.30;;;;;;5040895;28;20586;-75
2021/04/24 11:02:13;;;;;;;20.63;4.07;;;17.40;36.80;;;;;;5032399;28;20041;-77
2021/04/24 11:04:50;;;;;;;5.43;3.35;;;16.40;39.60;;;;;;5040865;28;20546;-78
2021/04/24 11:07:19;;;;;;;4.57;3.28;;;15.80;40.10;;;;;;5066257;28;20031;-74
2021/04/24 11:10:04;;;;;;;21.05;4.10;;;16.00;40.60;;;;;;5043690;28;20087;-74
2021/04/24 11:12:32;;;;;;;7.10;3.85;;;16.10;39.90;;;;;;5051505;28;20434;-76
2021/04/24 11:15:01;;;;;;;5.82;3.20;;;16.00;38.70;;;;;;5051676;28;20036;-76
2021/04/24 11:17:30;;;;;;;3.75;2.95;;;15.40;40.50;;;;;;5053678;28;20023;-77
2021/04/24 11:19:55;;;;;;;4.88;3.03;;;16.10;40.10;;;;;;5048353;28;20686;-75
2021/04/24 11:22:30;;;;;;;4.05;2.42;;;16.30;38.60;;;;;;5052124;28;20036;-75
2021/04/24 11:25:23;;;;;;;5.78;2.83;;;16.70;38.30;;;;;;5049514;28;20052;-74
2021/04/24 11:28:10;;;;;;;19.30;4.70;;;16.70;37.20;;;;;;5051827;28;20115;-75
2021/04/24 11:30:55;;;;;;;6.55;3.40;;;16.30;38.80;;;;;;5050822;28;20075;-76
2021/04/24 11:33:39;;;;;;;7.60;3.38;;;15.60;40.00;;;;;;5045760;28;20025;-76
2021/04/24 11:36:18;;;;;;;14.00;3.35;;;15.90;39.90;;;;;;5053134;28;21233;-75
2021/04/24 11:41:44;;;;;;;12.63;3.28;;;16.90;38.60;;;;;;5052974;28;20037;-79
2021/04/24 11:44:15;;;;;;;5.38;2.88;;;17.30;38.50;;;;;;5054757;28;20499;-76
2021/04/24 11:46:41;;;;;;;5.18;2.42;;;17.30;37.10;;;;;;5036337;28;20076;-75
2021/04/24 11:49:11;;;;;;;8.77;3.20;;;17.10;37.60;;;;;;5049033;28;20525;-76
2021/04/24 11:52:07;;;;;;;7.00;2.42;;;17.20;38.10;;;;;;5062074;28;20049;-75
2021/04/24 11:54:38;;;;;;;3.78;2.45;;;17.80;37.60;;;;;;5028933;28;20030;-76
2021/04/24 11:57:06;;;;;;;4.22;2.50;;;17.50;35.90;;;;;;5033077;28;20102;-77
2021/04/24 11:59:36;;;;;;;7.32;2.28;;;17.00;37.30;;;;;;5060995;28;20031;-75
2021/04/24 12:02:13;;;;;;;7.28;2.40;;;17.20;38.20;;;;;;5038733;28;20110;-75
2021/04/24 12:04:39;;;;;;;4.25;1.92;;;16.90;36.80;;;;;;5064000;28;20041;-75
2021/04/24 12:07:15;;;;;;;5.43;2.50;;;17.20;38.40;;;;;;5046131;28;20443;-77
2021/04/24 12:10:03;;;;;;;8.90;3.17;;;17.80;36.10;;;;;;5033845;28;20028;-75
2021/04/24 12:12:34;;;;;;;8.68;2.75;;;17.00;36.30;;;;;;5031278;28;20071;-74
2021/04/24 12:15:15;;;;;;;4.05;1.80;;;16.90;37.50;;;;;;5048559;28;20073;-74
2021/04/24 12:17:51;;;;;;;5.72;2.20;;;17.20;36.50;;;;;;5049673;28;20033;-76
2021/04/24 12:20:25;;;;;;;8.50;1.90;;;17.60;36.90;;;;;;5063155;28;20039;-77
2021/04/24 12:22:51;;;;;;;9.57;2.45;;;18.30;36.30;;;;;;5045754;28;20029;-80
2021/04/24 12:25:19;;;;;;;5.93;2.15;;;18.70;35.60;;;;;;5033537;28;20085;-76
2021/04/24 12:27:47;;;;;;;4.80;1.95;;;18.30;34.10;;;;;;5040386;28;20487;-75
2021/04/24 12:30:14;;;;;;;5.35;1.88;;;18.00;36.20;;;;;;5032479;28;20412;-75
2021/04/24 12:32:48;;;;;;;6.28;2.42;;;18.20;36.20;;;;;;5041471;28;20045;-75
2021/04/24 12:35:22;;;;;;;3.67;1.70;;;17.70;34.40;;;;;;5028133;28;20120;-76
2021/04/24 12:37:50;;;;;;;6.00;1.98;;;17.20;34.90;;;;;;5059129;28;20032;-74
2021/04/24 12:40:19;;;;;;;6.10;2.72;;;17.30;34.30;;;;;;5069568;28;20071;-75
2021/04/24 12:42:45;;;;;;;4.88;2.35;;;17.40;34.70;;;;;;5068269;28;20051;-75
2021/04/24 12:45:14;;;;;;;4.22;2.25;;;16.50;34.50;;;;;;5063607;28;20064;-74
2021/04/24 12:47:40;;;;;;;3.03;2.00;;;16.10;36.50;;;;;;5053611;28;20052;-75
2021/04/24 12:50:20;;;;;;;3.15;2.15;;;16.00;37.40;;;;;;5055351;28;20104;-75
2021/04/24 12:52:54;;;;;;;4.47;2.92;;;16.80;38.00;;;;;;5060952;28;20127;-74